Time;durP1;ratioP1;P1;durP2;ratioP2;P2;SDS_P1;SDS_P2;PMS_P1;PMS_P2;Temp;Humidity;BMP_temperature;BMP_pressure;BME280_temperature;BME280_humidity;BME280_pressure;Samples;Min_cycle;Max_cycle;Signal;HPM_P1;HPM_P2
2023/09/04 00:00:35;;;;;;;1.30;1.27;;;;;;;18.82;87.06;96457.66;4330578;32;20232;-66
2023/09/04 00:03:00;;;;;;;4.73;1.60;;;;;;;18.90;86.56;96450.72;4330786;32;20232;-66
2023/09/04 00:05:26;;;;;;;1.73;1.63;;;;;;;18.85;86.77;96444.38;4329773;32;20193;-66
2023/09/04 00:07:51;;;;;;;1.30;1.30;;;;;;;18.78;87.28;96441.37;4330234;32;20177;-66
2023/09/04 00:10:16;;;;;;;3.57;1.30;;;;;;;18.93;86.85;96439.28;4331265;32;20253;-66
2023/09/04 00:12:42;;;;;;;1.37;1.37;;;;;;;18.93;86.85;96445.47;4333774;32;20202;-66
2023/09/04 00:15:08;;;;;;;14.10;1.73;;;;;;;18.76;87.28;96442.78;4327971;32;20192;-66
2023/09/04 00:17:34;;;;;;;1.10;1.07;;;;;;;18.79;87.52;96436.78;4330354;32;20261;-66
2023/09/04 00:19:59;;;;;;;2.13;1.53;;;;;;;18.87;87.19;96436.00;4331075;32;20209;-66
2023/09/04 00:22:27;;;;;;;2.03;1.63;;;;;;;18.80;87.69;96438.38;4319025;33;20201;-66
2023/09/04 00:24:52;;;;;;;1.33;1.23;;;;;;;18.85;87.31;96438.22;4317179;32;20284;-66
2023/09/04 00:27:19;;;;;;;0.83;0.83;;;;;;;18.93;87.13;96439.28;4330972;32;20182;-65
2023/09/04 00:29:45;;;;;;;1.53;1.37;;;;;;;18.85;87.37;96443.59;4317222;32;20205;-65
2023/09/04 00:32:10;;;;;;;0.80;0.80;;;;;;;18.55;88.64;96448.78;4319255;32;20177;-66
2023/09/04 00:34:36;;;;;;;2.67;2.10;;;;;;;18.68;88.25;96443.59;4331174;32;20178;-65
2023/09/04 00:37:01;;;;;;;2.87;1.47;;;;;;;18.75;88.22;96444.69;4331011;32;20181;-66
2023/09/04 00:39:26;;;;;;;1.27;1.17;;;;;;;18.71;88.00;96448.31;4331246;32;20197;-66
2023/09/04 00:41:51;;;;;;;1.60;1.50;;;;;;;18.55;89.03;96451.47;4329474;32;20208;-66
2023/09/04 00:44:17;;;;;;;0.87;0.87;;;;;;;18.66;88.74;96451.19;4331046;32;20249;-66
2023/09/04 00:46:43;;;;;;;0.90;0.90;;;;;;;18.76;88.40;96461.62;4331463;33;20208;-66
2023/09/04 00:49:10;;;;;;;1.00;1.00;;;;;;;18.59;88.87;96459.72;4326349;32;20177;-66
2023/09/04 00:51:36;;;;;;;1.27;1.17;;;;;;;18.43;89.31;96458.59;4329779;32;20190;-66
2023/09/04 00:54:03;;;;;;;1.23;1.13;;;;;;;18.18;90.35;96460.12;4329185;32;20196;-66
2023/09/04 00:56:28;;;;;;;0.67;0.67;;;;;;;18.29;90.47;96458.72;4320981;32;20190;-66
2023/09/04 00:58:54;;;;;;;1.57;1.47;;;;;;;18.38;90.04;96450.69;4331327;32;20296;-66
2023/09/04 01:01:20;;;;;;;1.70;1.47;;;;;;;18.59;88.96;96462.41;4322769;32;20224;-66
2023/09/04 01:03:45;;;;;;;1.43;0.93;;;;;;;18.60;88.86;96455.94;4317937;32;20241;-66
2023/09/04 01:06:11;;;;;;;1.80;1.10;;;;;;;18.63;88.89;96457.19;4332861;32;20224;-68
2023/09/04 01:08:37;;;;;;;0.77;0.77;;;;;;;18.61;88.99;96454.03;4330795;32;20232;-65
2023/09/04 01:11:11;;;;;;;1.70;1.60;;;;;;;18.69;88.60;96451.34;4317554;32;20253;-65
2023/09/04 01:13:43;;;;;;;1.07;1.07;;;;;;;18.57;89.00;96442.31;4330867;32;20200;-65
2023/09/04 01:16:11;;;;;;;0.70;0.70;;;;;;;18.62;88.58;96437.59;4317985;32;20221;-65
2023/09/04 01:18:36;;;;;;;4.30;1.43;;;;;;;18.58;89.25;96450.06;4330945;32;20181;-66
2023/09/04 01:21:03;;;;;;;16.47;1.67;;;;;;;18.42;89.54;96439.00;4330931;32;20204;-65
2023/09/04 01:23:32;;;;;;;0.87;0.87;;;;;;;18.52;89.42;96449.41;4329217;32;20225;-65
2023/09/04 01:26:08;;;;;;;0.67;0.67;;;;;;;18.48;89.01;96445.78;4328504;32;20194;-65
2023/09/04 01:28:42;;;;;;;0.50;0.50;;;;;;;18.47;89.44;96452.28;4317019;32;20177;-65
2023/09/04 01:31:16;;;;;;;0.97;0.97;;;;;;;18.48;89.61;96447.69;4330417;32;20181;-65
2023/09/04 01:33:49;;;;;;;0.80;0.80;;;;;;;18.42;89.37;96435.50;4317621;32;20185;-65
2023/09/04 01:36:16;;;;;;;0.83;0.83;;;;;;;18.53;88.96;96436.75;4328272;32;20226;-66
2023/09/04 01:38:45;;;;;;;1.07;1.07;;;;;;;18.40;89.36;96432.34;4328674;32;20209;-66
2023/09/04 01:41:10;;;;;;;1.07;0.93;;;;;;;18.44;88.87;96428.72;4326370;32;20170;-65
2023/09/04 01:43:38;;;;;;;1.13;1.03;;;;;;;18.44;88.15;96434.09;4331561;32;20220;-65
2023/09/04 01:46:04;;;;;;;0.83;0.80;;;;;;;18.43;88.55;96423.66;4320191;32;20280;-65
2023/09/04 01:48:30;;;;;;;1.20;1.20;;;;;;;18.55;88.37;96421.91;4330429;32;20201;-66
2023/09/04 01:50:55;;;;;;;0.70;0.70;;;;;;;18.61;88.14;96416.41;4319543;32;20194;-65
2023/09/04 01:53:22;;;;;;;1.13;1.13;;;;;;;18.61;87.95;96416.41;4331819;32;20233;-65
2023/09/04 01:55:47;;;;;;;0.90;0.90;;;;;;;18.59;88.39;96415.91;4328944;32;20193;-65
2023/09/04 01:58:12;;;;;;;0.37;0.37;;;;;;;18.63;87.97;96416.88;4321259;33;20240;-65
2023/09/04 02:00:38;;;;;;;0.67;0.67;;;;;;;18.49;88.22;96425.09;4333179;32;20204;-65
2023/09/04 02:03:03;;;;;;;1.30;1.20;;;;;;;18.47;88.57;96409.28;4333206;32;26363;-65
2023/09/04 02:05:29;;;;;;;1.07;1.07;;;;;;;18.14;89.45;96413.50;4331860;32;20269;-66
2023/09/04 02:07:54;;;;;;;1.30;1.30;;;;;;;18.44;88.96;96417.19;4332928;32;20216;-66
2023/09/04 02:10:22;;;;;;;0.50;0.50;;;;;;;18.53;88.62;96401.81;4332524;32;20220;-66
2023/09/04 02:12:48;;;;;;;0.87;0.87;;;;;;;18.35;88.42;96409.09;4331872;32;20182;-66
2023/09/04 02:15:13;;;;;;;1.37;1.23;;;;;;;18.36;89.01;96410.69;4333164;32;20177;-66
2023/09/04 02:17:38;;;;;;;1.30;1.30;;;;;;;18.27;89.03;96404.53;4329101;32;20186;-66
2023/09/04 02:20:04;;;;;;;0.60;0.60;;;;;;;18.20;89.76;96401.50;4331424;32;20272;-66
2023/09/04 02:22:30;;;;;;;0.70;0.70;;;;;;;18.30;89.54;96411.94;4332956;32;20210;-66
2023/09/04 02:24:55;;;;;;;1.10;1.10;;;;;;;18.31;89.79;96402.78;4324295;32;20201;-66
2023/09/04 02:27:20;;;;;;;1.33;1.33;;;;;;;18.37;89.59;96396.16;4333834;32;20177;-66
2023/09/04 02:29:46;;;;;;;1.33;1.07;;;;;;;18.39;88.99;96399.31;4331821;32;20224;-66
2023/09/04 02:32:11;;;;;;;1.17;1.17;;;;;;;18.29;88.92;96394.22;4330274;32;20182;-66
2023/09/04 02:34:36;;;;;;;1.23;1.17;;;;;;;18.31;89.07;96394.72;4330215;32;20276;-65
2023/09/04 02:37:02;;;;;;;1.10;1.10;;;;;;;18.40;89.14;96395.50;4331791;32;20185;-66
2023/09/04 02:39:27;;;;;;;0.97;0.97;;;;;;;18.17;89.52;96383.34;4332169;32;20272;-66
2023/09/04 02:41:52;;;;;;;0.80;0.80;;;;;;;18.17;90.03;96381.44;4318504;32;20178;-66
2023/09/04 02:44:18;;;;;;;1.20;1.20;;;;;;;18.09;89.99;96384.09;4332138;32;20262;-66
2023/09/04 02:46:43;;;;;;;0.90;0.90;;;;;;;18.09;90.47;96384.09;4334277;32;20269;-66
2023/09/04 02:49:08;;;;;;;0.90;0.90;;;;;;;18.11;90.27;96385.38;4332752;32;20260;-66
2023/09/04 02:51:33;;;;;;;0.93;0.93;;;;;;;18.17;90.21;96386.03;4330925;32;20276;-67
2023/09/04 02:53:59;;;;;;;1.90;1.33;;;;;;;18.18;89.68;96387.59;4331944;32;20251;-66
2023/09/04 02:56:24;;;;;;;0.90;0.90;;;;;;;18.26;90.13;96386.81;4332587;32;20340;-66
2023/09/04 02:58:50;;;;;;;0.90;0.87;;;;;;;18.20;89.87;96385.41;4331526;32;20188;-66
2023/09/04 03:01:16;;;;;;;1.20;1.20;;;;;;;18.20;90.26;96390.78;4331930;32;20190;-66
2023/09/04 03:03:41;;;;;;;0.80;0.80;;;;;;;18.17;90.83;96392.19;4333994;32;20182;-66
2023/09/04 03:06:08;;;;;;;1.07;1.00;;;;;;;18.10;90.44;96396.44;4332717;32;20288;-66
2023/09/04 03:08:33;;;;;;;2.23;1.43;;;;;;;18.01;90.86;96396.44;4330629;32;20201;-66
2023/09/04 03:10:58;;;;;;;2.63;1.93;;;;;;;17.98;90.94;96407.00;4330647;32;20220;-66
2023/09/04 03:13:24;;;;;;;2.27;1.60;;;;;;;18.20;90.76;96406.88;4332529;32;20226;-66
2023/09/04 03:15:49;;;;;;;0.63;0.63;;;;;;;18.18;90.18;96401.03;4330550;32;20185;-66
2023/09/04 03:18:14;;;;;;;1.40;1.40;;;;;;;18.07;90.82;96402.47;4332173;32;20263;-65
2023/09/04 03:20:40;;;;;;;0.93;0.93;;;;;;;17.93;91.24;96404.47;4333273;32;20202;-66
2023/09/04 03:23:05;;;;;;;1.10;1.10;;;;;;;18.01;91.36;96401.03;4332190;32;20201;-66
2023/09/04 03:25:32;;;;;;;1.70;1.47;;;;;;;18.05;91.42;96407.34;4331982;32;20196;-66
2023/09/04 03:27:57;;;;;;;1.30;1.30;;;;;;;18.05;91.34;96404.66;4318240;32;20204;-66
2023/09/04 03:30:23;;;;;;;1.27;1.27;;;;;;;18.01;91.51;96401.03;4332010;32;20186;-66
2023/09/04 03:32:49;;;;;;;1.17;1.17;;;;;;;18.00;90.37;96397.53;4331666;32;20186;-66
2023/09/04 03:35:16;;;;;;;1.67;1.67;;;;;;;17.93;90.68;96401.78;4333408;32;20264;-66
2023/09/04 03:37:42;;;;;;;1.60;1.50;;;;;;;18.01;91.15;96404.50;4318919;32;20186;-66
2023/09/04 03:40:18;;;;;;;3.20;1.50;;;;;;;17.89;91.84;96403.50;4331562;32;20261;-66
2023/09/04 03:42:43;;;;;;;1.00;1.00;;;;;;;17.91;91.83;96401.31;4331150;32;20185;-66
2023/09/04 03:45:09;;;;;;;1.70;1.60;;;;;;;18.02;91.42;96399.91;4332318;32;20224;-65
2023/09/04 03:47:34;;;;;;;1.10;1.10;;;;;;;17.81;91.09;96407.78;4317761;32;20255;-66
2023/09/04 03:49:59;;;;;;;1.20;1.20;;;;;;;17.68;91.10;96412.13;4331190;32;20202;-66
2023/09/04 03:52:24;;;;;;;1.03;1.03;;;;;;;17.81;91.70;96413.94;4332648;32;20239;-66
2023/09/04 03:54:50;;;;;;;2.00;1.63;;;;;;;17.76;91.62;96414.06;4331787;32;20189;-66
2023/09/04 03:57:15;;;;;;;0.50;0.50;;;;;;;17.69;90.89;96421.78;4319066;32;20190;-66
2023/09/04 03:59:40;;;;;;;3.00;2.13;;;;;;;17.75;92.19;96412.50;4319648;32;20186;-66
2023/09/04 04:02:06;;;;;;;1.23;1.23;;;;;;;17.75;91.79;96411.69;4328958;32;20204;-66
2023/09/04 04:04:31;;;;;;;0.77;0.77;;;;;;;17.57;91.44;96408.16;4328570;32;20197;-66
2023/09/04 04:06:56;;;;;;;1.10;1.10;;;;;;;17.78;92.18;96411.06;4331696;32;20192;-68
2023/09/04 04:09:22;;;;;;;1.87;1.70;;;;;;;17.75;91.42;96412.50;4332028;32;20182;-66
2023/09/04 04:11:47;;;;;;;1.67;1.57;;;;;;;17.64;91.94;96416.56;4331940;32;20181;-66
2023/09/04 04:14:12;;;;;;;1.37;1.27;;;;;;;17.67;91.46;96420.50;4333636;32;20204;-66
2023/09/04 04:16:38;;;;;;;1.30;1.30;;;;;;;17.70;91.41;96417.19;4332101;32;20229;-66
2023/09/04 04:19:03;;;;;;;1.90;1.80;;;;;;;17.72;91.30;96423.06;4331386;32;20181;-66
2023/09/04 04:21:28;;;;;;;1.10;1.10;;;;;;;17.71;91.63;96416.91;4330790;32;20204;-66
2023/09/04 04:23:54;;;;;;;1.07;1.07;;;;;;;17.75;91.51;96417.84;4330928;32;20233;-65
2023/09/04 04:26:19;;;;;;;1.47;1.47;;;;;;;17.83;91.25;96419.00;4331922;32;20268;-66
2023/09/04 04:28:44;;;;;;;1.40;1.40;;;;;;;17.87;91.27;96427.22;4333482;32;20191;-66
2023/09/04 04:31:10;;;;;;;1.30;1.30;;;;;;;17.81;90.99;96438.09;4317849;33;20189;-66
2023/09/04 04:33:35;;;;;;;11.50;1.63;;;;;;;17.78;90.35;96427.97;4331471;32;20439;-66
2023/09/04 04:36:03;;;;;;;1.87;1.83;;;;;;;17.58;91.22;96428.50;4327061;32;20223;-66
2023/09/04 04:38:28;;;;;;;0.97;0.97;;;;;;;17.71;91.18;96427.63;4331500;32;20257;-66
2023/09/04 04:40:56;;;;;;;1.33;1.33;;;;;;;17.67;91.28;96421.28;4330279;32;20272;-66
2023/09/04 04:43:21;;;;;;;0.93;0.93;;;;;;;17.82;90.71;96417.41;4334385;32;20185;-66
2023/09/04 04:45:46;;;;;;;2.03;1.93;;;;;;;17.80;90.90;96425.78;4315364;32;20248;-66
2023/09/04 04:48:12;;;;;;;1.70;1.60;;;;;;;17.81;90.49;96430.03;4327034;32;20183;-65
2023/09/04 04:50:40;;;;;;;2.07;1.83;;;;;;;17.84;90.29;96421.38;4320184;32;20188;-66
2023/09/04 04:53:05;;;;;;;1.93;1.83;;;;;;;17.77;90.56;96423.72;4317683;32;20268;-66
2023/09/04 04:55:31;;;;;;;1.20;1.20;;;;;;;17.57;89.33;96426.94;4334114;32;20208;-66
2023/09/04 04:57:56;;;;;;;1.90;1.73;;;;;;;17.61;90.67;96429.78;4323656;32;20241;-66
2023/09/04 05:00:21;;;;;;;1.23;1.20;;;;;;;17.61;91.46;96437.84;4321858;32;20219;-66
2023/09/04 05:02:47;;;;;;;2.70;2.50;;;;;;;17.61;90.69;96438.62;4323421;32;20181;-66
2023/09/04 05:05:12;;;;;;;0.90;0.90;;;;;;;17.69;90.88;96439.78;4323766;32;20185;-67
2023/09/04 05:07:37;;;;;;;1.33;1.33;;;;;;;17.70;90.54;96430.62;4324878;32;20215;-66
2023/09/04 05:10:03;;;;;;;11.53;2.13;;;;;;;17.53;90.94;96431.31;4328621;32;20182;-67
2023/09/04 05:12:28;;;;;;;1.63;1.53;;;;;;;17.46;91.13;96423.72;4334263;32;20189;-67
2023/09/04 05:14:54;;;;;;;1.63;1.53;;;;;;;17.61;91.66;96435.94;4333971;32;20200;-67
2023/09/04 05:17:19;;;;;;;1.40;1.30;;;;;;;17.45;91.35;96429.41;4330780;32;20265;-67
2023/09/04 05:19:44;;;;;;;1.67;1.67;;;;;;;17.43;91.32;96428.94;4342543;32;20265;-67
2023/09/04 05:22:10;;;;;;;1.70;1.70;;;;;;;17.45;91.68;96437.47;4334655;32;20244;-67
2023/09/04 05:24:35;;;;;;;1.53;1.53;;;;;;;17.45;91.44;96438.25;4331482;32;20273;-67
2023/09/04 05:27:03;;;;;;;0.90;0.90;;;;;;;17.56;91.17;96433.41;4332588;32;20186;-67
2023/09/04 05:29:28;;;;;;;1.23;1.23;;;;;;;17.53;91.60;96431.31;4336432;32;20258;-67
2023/09/04 05:31:53;;;;;;;7.00;2.63;;;;;;;17.45;91.39;96435.56;4335384;32;20200;-67
2023/09/04 05:34:19;;;;;;;1.33;1.33;;;;;;;17.41;91.34;96436.50;4339783;32;20182;-67
2023/09/04 05:36:46;;;;;;;1.97;1.60;;;;;;;17.63;91.36;96436.44;4327723;32;20201;-67
2023/09/04 05:39:11;;;;;;;2.50;2.30;;;;;;;17.55;91.56;96433.69;4337632;32;20198;-67
2023/09/04 05:41:37;;;;;;;3.93;2.33;;;;;;;17.54;91.63;96432.91;4323407;32;20204;-67
2023/09/04 05:44:03;;;;;;;2.03;1.93;;;;;;;17.71;90.96;96437.56;4320262;32;20178;-67
2023/09/04 05:46:30;;;;;;;1.73;1.27;;;;;;;17.78;91.01;96437.91;4332151;32;20199;-67
2023/09/04 05:48:55;;;;;;;2.10;1.90;;;;;;;17.66;91.33;96443.91;4333787;32;20240;-67
2023/09/04 05:51:20;;;;;;;1.20;1.20;;;;;;;17.70;90.71;96446.72;4332351;32;20177;-67
2023/09/04 05:53:46;;;;;;;3.67;2.27;;;;;;;17.83;90.56;96446.63;4319915;32;20217;-67
2023/09/04 05:56:11;;;;;;;0.93;0.93;;;;;;;17.62;90.36;96448.25;4320115;32;20223;-66
2023/09/04 05:58:44;;;;;;;1.10;1.10;;;;;;;17.80;90.58;96441.87;4329993;32;20192;-67
2023/09/04 06:01:10;;;;;;;1.67;1.43;;;;;;;17.76;90.71;96443.59;4325382;32;20185;-67
2023/09/04 06:03:36;;;;;;;1.70;1.33;;;;;;;17.69;90.58;96447.81;4331022;32;20320;-67
2023/09/04 06:06:01;;;;;;;8.23;2.10;;;;;;;17.80;90.68;96436.50;4329913;32;20193;-67
2023/09/04 06:08:26;;;;;;;1.23;1.23;;;;;;;17.84;91.03;96442.84;4329530;32;20276;-67
2023/09/04 06:10:52;;;;;;;1.23;1.20;;;;;;;17.96;90.64;96436.88;4327295;32;20182;-66
2023/09/04 06:13:17;;;;;;;2.07;1.97;;;;;;;18.01;90.55;96436.72;4326522;32;20181;-67
2023/09/04 06:15:43;;;;;;;5.70;2.00;;;;;;;17.84;90.31;96437.47;4330952;32;20186;-67
2023/09/04 06:18:08;;;;;;;1.57;1.50;;;;;;;18.03;90.62;96439.88;4331182;32;20182;-67
2023/09/04 06:20:33;;;;;;;1.87;1.80;;;;;;;18.05;90.39;96442.25;4329513;32;20212;-67
2023/09/04 06:22:59;;;;;;;2.27;2.17;;;;;;;18.11;90.03;96454.41;4325931;32;20204;-67
2023/09/04 06:25:24;;;;;;;1.30;0.83;;;;;;;18.08;89.76;96452.38;4331569;32;20182;-67
2023/09/04 06:27:49;;;;;;;1.13;1.13;;;;;;;18.07;90.48;96448.13;4318831;32;20198;-67
2023/09/04 06:30:14;;;;;;;3.50;2.30;;;;;;;18.12;89.83;96446.06;4334822;32;20189;-66
2023/09/04 06:32:40;;;;;;;1.70;1.60;;;;;;;18.08;89.67;96450.47;4332508;32;20190;-67
2023/09/04 06:35:05;;;;;;;1.07;1.07;;;;;;;17.91;89.57;96452.31;4319109;32;20307;-67
2023/09/04 06:37:31;;;;;;;23.27;3.90;;;;;;;17.89;89.76;96449.16;4331534;32;20225;-66
2023/09/04 06:39:56;;;;;;;2.67;2.47;;;;;;;17.93;90.02;96450.13;4332669;32;20198;-66
2023/09/04 06:42:21;;;;;;;2.43;1.70;;;;;;;17.96;90.33;96449.50;4332690;32;20200;-66
2023/09/04 06:44:47;;;;;;;2.30;2.00;;;;;;;18.02;90.10;96453.62;4333181;32;20186;-67
2023/09/04 06:47:12;;;;;;;1.87;1.53;;;;;;;18.05;90.35;96453.00;4334253;32;20186;-66
2023/09/04 06:49:37;;;;;;;1.63;1.53;;;;;;;18.23;89.94;96454.63;4332767;32;20185;-67
2023/09/04 06:52:03;;;;;;;1.33;1.30;;;;;;;18.20;90.00;96452.56;4331323;32;20193;-67
2023/09/04 06:54:29;;;;;;;0.80;0.80;;;;;;;18.18;89.77;96455.56;4329967;32;20210;-67
2023/09/04 06:56:54;;;;;;;7.90;1.40;;;;;;;18.11;89.77;96447.16;4333497;32;20212;-67
2023/09/04 06:59:19;;;;;;;10.50;2.00;;;;;;;18.22;89.94;96458.41;4329019;32;20178;-66
2023/09/04 07:01:44;;;;;;;1.90;1.63;;;;;;;18.28;89.44;96451.00;4334512;32;20272;-67
2023/09/04 07:04:10;;;;;;;1.80;1.53;;;;;;;18.34;89.71;96452.41;4330851;32;20212;-67
2023/09/04 07:06:35;;;;;;;1.43;1.43;;;;;;;18.38;89.26;96446.09;4330406;32;20356;-67
2023/09/04 07:09:01;;;;;;;3.17;2.97;;;;;;;18.41;89.14;96445.47;4332805;32;20237;-66
2023/09/04 07:11:26;;;;;;;4.27;3.63;;;;;;;18.48;89.04;96445.00;4330457;32;20193;-66
2023/09/04 07:16:27;;;;;;;69.37;43.87;;;;;;;18.53;88.37;96452.88;4357842;27;20233;-64
2023/09/04 07:18:52;;;;;;;4.03;3.50;;;;;;;18.52;88.79;96457.47;4332760;32;20219;-64
2023/09/04 07:21:18;;;;;;;4.67;4.30;;;;;;;18.55;88.81;96451.47;4323409;33;20216;-65
2023/09/04 07:23:43;;;;;;;3.70;2.13;;;;;;;18.62;88.54;96464.47;4308970;33;20228;-65
2023/09/04 07:26:08;;;;;;;10.97;7.60;;;;;;;18.50;90.27;96461.56;4315205;33;20244;-66
2023/09/04 07:28:33;;;;;;;6.33;5.67;;;;;;;18.62;89.51;96461.00;4328662;33;20201;-66
2023/09/04 07:31:16;;;;;;;5.67;2.80;;;;;;;18.75;88.62;96470.78;4326203;33;20229;-64
2023/09/04 07:33:42;;;;;;;4.20;3.80;;;;;;;18.82;87.88;96466.53;4328943;33;20249;-65
2023/09/04 07:36:07;;;;;;;2.70;2.50;;;;;;;18.94;87.01;96468.56;4329810;32;20216;-65
2023/09/04 07:38:32;;;;;;;1.97;1.87;;;;;;;18.97;87.27;96467.94;4320890;32;20233;-64
2023/09/04 07:41:03;;;;;;;3.27;3.07;;;;;;;19.03;86.93;96476.62;4330810;32;20325;-65
2023/09/04 07:43:30;;;;;;;2.43;2.13;;;;;;;19.10;86.56;96480.44;4336210;32;20197;-66
2023/09/04 07:45:55;;;;;;;2.10;1.87;;;;;;;19.15;86.31;96472.16;4330630;32;20206;-66
2023/09/04 07:48:21;;;;;;;1.27;1.20;;;;;;;19.26;86.20;96469.94;4322452;33;20313;-66
2023/09/04 07:50:48;;;;;;;1.57;1.57;;;;;;;19.34;85.94;96479.09;4336616;32;20189;-65
2023/09/04 07:53:14;;;;;;;0.93;0.93;;;;;;;19.43;85.92;96482.56;4324783;33;20204;-64
2023/09/04 07:55:39;;;;;;;1.33;1.23;;;;;;;19.47;85.15;96488.88;4316048;33;20240;-66
2023/09/04 07:58:04;;;;;;;0.97;0.97;;;;;;;19.46;85.52;96485.41;4315789;33;20197;-65
2023/09/04 08:00:30;;;;;;;0.80;0.80;;;;;;;19.54;84.85;96491.88;4317412;33;20229;-64
2023/09/04 08:02:55;;;;;;;1.73;1.63;;;;;;;19.62;84.36;96496.47;4316384;33;20200;-65
2023/09/04 08:05:20;;;;;;;4.00;2.03;;;;;;;19.64;84.33;96494.25;4317895;33;20252;-66
2023/09/04 08:07:46;;;;;;;0.93;0.93;;;;;;;19.62;84.64;96493.78;4326166;33;20259;-65
2023/09/04 08:10:13;;;;;;;1.00;0.90;;;;;;;19.66;84.51;96500.09;4331267;33;20249;-66
2023/09/04 08:12:38;;;;;;;1.13;1.13;;;;;;;19.70;84.38;96492.97;4333967;32;20185;-65
2023/09/04 08:15:04;;;;;;;1.70;1.47;;;;;;;19.75;84.45;96498.16;4317490;32;20233;-65
2023/09/04 08:17:29;;;;;;;0.73;0.73;;;;;;;19.73;84.80;96500.41;4325488;32;20209;-65
2023/09/04 08:19:55;;;;;;;1.07;1.07;;;;;;;19.77;84.83;96489.75;4329218;32;20365;-66
2023/09/04 08:22:20;;;;;;;1.63;1.53;;;;;;;19.81;84.78;96496.06;4335292;32;20217;-65
2023/09/04 08:24:48;;;;;;;0.83;0.83;;;;;;;19.87;84.63;96492.88;4324151;32;20232;-66
2023/09/04 08:27:14;;;;;;;1.17;1.17;;;;;;;19.95;84.31;96483.19;4330468;33;20268;-66
2023/09/04 08:29:39;;;;;;;1.27;1.17;;;;;;;19.99;84.44;96475.22;4327213;32;20198;-66
2023/09/04 08:32:05;;;;;;;2.93;1.67;;;;;;;20.04;84.23;96477.75;4313852;33;20212;-65
2023/09/04 08:34:30;;;;;;;0.70;0.70;;;;;;;20.08;84.25;96467.91;4337374;32;20229;-64
2023/09/04 08:36:55;;;;;;;1.60;1.20;;;;;;;20.14;83.81;96469.31;4328725;32;20216;-66
2023/09/04 08:39:21;;;;;;;0.77;0.77;;;;;;;20.14;83.35;96477.41;4325789;33;20253;-66
2023/09/04 08:41:47;;;;;;;0.83;0.83;;;;;;;20.22;83.12;96465.75;4324618;33;20181;-66
2023/09/04 08:44:13;;;;;;;0.93;0.93;;;;;;;20.29;82.51;96460.66;4315311;33;20246;-66
2023/09/04 08:46:40;;;;;;;1.00;1.00;;;;;;;20.29;82.77;96462.56;4322024;33;20186;-66
2023/09/04 08:49:05;;;;;;;0.83;0.83;;;;;;;20.32;82.59;96460.00;4329953;33;20202;-65
2023/09/04 08:51:31;;;;;;;0.67;0.67;;;;;;;20.44;81.53;96460.09;4319559;33;20190;-65
2023/09/04 08:53:57;;;;;;;0.70;0.70;;;;;;;20.41;81.60;96470.75;4317799;33;20244;-66
2023/09/04 08:56:24;;;;;;;0.50;0.50;;;;;;;20.50;80.59;96461.47;4320694;33;20185;-65
2023/09/04 08:58:49;;;;;;;1.03;1.03;;;;;;;20.56;80.04;96457.47;4330876;32;20197;-65
2023/09/04 09:01:18;;;;;;;0.83;0.83;;;;;;;20.56;79.84;96454.78;4317402;33;20189;-64
2023/09/04 09:03:43;;;;;;;0.50;0.50;;;;;;;20.64;79.55;96457.72;4319725;33;20211;-66
2023/09/04 09:06:10;;;;;;;0.57;0.57;;;;;;;20.72;78.86;96460.38;4333928;33;20240;-65
2023/09/04 09:08:36;;;;;;;0.50;0.50;;;;;;;20.80;78.47;96458.69;4331044;33;20201;-65
2023/09/04 09:11:03;;;;;;;1.03;0.40;;;;;;;20.88;76.80;96465.94;4339927;32;20233;-65
2023/09/04 09:13:28;;;;;;;0.70;0.70;;;;;;;20.96;75.78;96459.69;4332627;32;20320;-66
2023/09/04 09:15:54;;;;;;;0.60;0.60;;;;;;;21.05;74.02;96473.88;4337856;32;20198;-65
2023/09/04 09:18:39;;;;;;;0.33;0.33;;;;;;;21.10;73.06;96470.97;4331453;32;20210;-65
2023/09/04 09:21:24;;;;;;;0.63;0.63;;;;;;;21.19;72.45;96473.59;4332709;33;20197;-64
2023/09/04 09:24:12;;;;;;;0.37;0.37;;;;;;;21.23;71.44;96467.22;4336697;32;20198;-65
2023/09/04 09:26:39;;;;;;;0.80;0.80;;;;;;;21.29;71.46;96459.69;4323894;33;20295;-65
2023/09/04 09:29:08;;;;;;;0.90;0.90;;;;;;;21.30;71.02;96457.78;4328446;33;20194;-65
2023/09/04 09:31:35;;;;;;;0.33;0.33;;;;;;;21.26;71.93;96457.66;4319471;32;20213;-64
2023/09/04 09:34:00;;;;;;;0.77;0.67;;;;;;;21.26;72.48;96461.16;4342648;32;20319;-65
2023/09/04 09:36:27;;;;;;;2.10;0.70;;;;;;;21.41;70.90;96448.13;4317784;33;20201;-65
2023/09/04 09:38:54;;;;;;;0.50;0.50;;;;;;;21.45;70.58;96454.44;4324007;33;20190;-67
2023/09/04 09:41:19;;;;;;;0.67;0.67;;;;;;;21.45;70.40;96449.81;4326870;33;20198;-65
2023/09/04 09:43:45;;;;;;;0.40;0.40;;;;;;;;;;4335946;32;20291;-65
2023/09/04 09:46:10;;;;;;;0.40;0.40;;;;;;;21.56;69.92;96444.78;4331150;32;20301;-66
2023/09/04 09:48:39;;;;;;;0.40;0.40;;;;;;;21.63;68.22;96442.31;4332941;33;20193;-66
2023/09/04 09:51:09;;;;;;;0.50;0.50;;;;;;;21.58;68.13;96440.63;4327952;33;20194;-66
2023/09/04 09:53:48;;;;;;;1.03;1.00;;;;;;;21.54;66.94;96439.72;4315913;33;20190;-66
2023/09/04 09:56:14;;;;;;;0.33;0.33;;;;;;;21.60;66.73;96443.78;4328383;32;20201;-66
2023/09/04 09:58:45;;;;;;;0.67;0.67;;;;;;;21.62;67.34;96438.03;4329871;32;20189;-66
2023/09/04 10:01:15;;;;;;;0.47;0.47;;;;;;;21.67;66.38;96437.81;4339840;32;20213;-66
2023/09/04 10:03:43;;;;;;;0.30;0.30;;;;;;;21.72;63.43;96440.28;4346673;32;20200;-66
2023/09/04 10:06:14;;;;;;;0.40;0.40;;;;;;;21.84;61.25;96443.00;4314507;33;20217;-66
2023/09/04 10:08:42;;;;;;;0.43;0.43;;;;;;;21.99;57.49;96446.16;4330002;33;20189;-66
2023/09/04 10:11:10;;;;;;;0.33;0.33;;;;;;;22.03;58.78;96436.28;4336278;32;20253;-66
2023/09/04 10:14:14;;;;;;;0.37;0.37;;;;;;;22.01;59.43;96433.13;4328996;32;20194;-67
2023/09/04 10:16:56;;;;;;;0.60;0.60;;;;;;;22.08;56.23;96436.81;4328925;33;20220;-67
2023/09/04 10:19:28;;;;;;;0.50;0.50;;;;;;;21.91;58.24;96437.81;4309125;33;20268;-66
2023/09/04 10:21:59;;;;;;;0.53;0.53;;;;;;;21.92;59.93;96431.28;4308164;33;20210;-66
2023/09/04 10:24:36;;;;;;;0.40;0.40;;;;;;;22.03;60.56;96422.78;4319462;32;20301;-67
2023/09/04 10:27:09;;;;;;;0.33;0.33;;;;;;;21.89;62.43;96412.25;4314882;33;20241;-67
2023/09/04 10:29:42;;;;;;;0.20;0.20;;;;;;;21.93;61.56;96413.16;4314294;33;20197;-67
2023/09/04 10:32:11;;;;;;;1.70;0.87;;;;;;;21.96;61.48;96398.97;4319006;33;20194;-66
2023/09/04 10:34:37;;;;;;;0.40;0.40;;;;;;;21.92;61.72;96403.47;4321312;33;21287;-66
2023/09/04 10:37:02;;;;;;;0.60;0.60;;;;;;;22.03;59.80;96398.44;4321103;32;20224;-66
2023/09/04 10:39:28;;;;;;;0.57;0.57;;;;;;;22.10;60.55;96410.25;4318654;33;20257;-66
2023/09/04 10:41:53;;;;;;;0.50;0.50;;;;;;;22.25;59.81;96401.41;4324297;33;20202;-67
2023/09/04 10:44:44;;;;;;;2.03;1.93;;;;;;;22.16;60.54;96402.69;4319258;33;20210;-66
2023/09/04 10:47:10;;;;;;;5.00;4.57;;;;;;;22.32;59.49;96405.47;4312355;32;20201;-66
2023/09/04 10:49:35;;;;;;;0.60;0.60;;;;;;;22.48;57.94;96398.22;4313623;33;20240;-66
2023/09/04 10:52:01;;;;;;;0.60;0.60;;;;;;;22.48;58.13;96396.28;4328991;33;20182;-66
2023/09/04 10:54:27;;;;;;;0.80;0.80;;;;;;;22.48;58.62;96388.19;4328099;33;20194;-67
2023/09/04 10:56:57;;;;;;;0.80;0.80;;;;;;;22.47;58.59;96394.72;4325374;33;20262;-66
2023/09/04 10:59:22;;;;;;;0.30;0.30;;;;;;;22.47;58.95;96391.22;4315677;33;20194;-66
2023/09/04 11:01:48;;;;;;;0.57;0.57;;;;;;;22.43;58.50;96399.25;4304942;33;20244;-66
2023/09/04 11:04:34;;;;;;;0.60;0.60;;;;;;;22.42;57.88;96392.28;4323403;33;20213;-67
2023/09/04 11:07:35;;;;;;;0.60;0.60;;;;;;;22.59;58.44;96389.28;4321326;33;20197;-67
2023/09/04 11:10:32;;;;;;;0.40;0.40;;;;;;;22.48;59.15;96396.28;4310110;33;20228;-66
2023/09/04 11:12:58;;;;;;;2.83;2.73;;;;;;;22.58;57.29;96393.13;4301798;33;20251;-67
2023/09/04 11:15:26;;;;;;;1.00;1.00;;;;;;;22.64;55.86;96385.53;4312738;33;20195;-66
2023/09/04 11:17:52;;;;;;;1.17;1.17;;;;;;;22.71;55.25;96387.66;4312266;33;20201;-67
2023/09/04 11:20:23;;;;;;;0.83;0.83;;;;;;;22.70;56.26;96388.78;4327965;33;20218;-66
2023/09/04 11:22:49;;;;;;;0.60;0.60;;;;;;;22.64;56.21;96382.84;4316297;33;20202;-66
2023/09/04 11:25:15;;;;;;;1.43;1.33;;;;;;;22.69;56.14;96385.28;4312759;32;20232;-66
2023/09/04 11:27:43;;;;;;;10.13;5.80;;;;;;;22.72;53.76;96378.41;4318777;33;20219;-66
2023/09/04 11:30:09;;;;;;;2.17;2.07;;;;;;;22.85;53.12;96379.97;4315423;32;20305;-66
2023/09/04 11:32:37;;;;;;;6.63;6.03;;;;;;;22.96;52.57;96383.72;4321019;32;20194;-66
2023/09/04 11:35:02;;;;;;;1.40;1.40;;;;;;;22.95;52.39;96384.84;4322117;33;20194;-66